createdAt,value
2018-04-11T00:01:19.648Z,20.10
2018-04-11T00:03:49.423Z,20.00
2018-04-11T00:06:20.140Z,19.90
2018-04-11T00:08:50.390Z,19.80
2018-04-11T00:11:20.094Z,19.80
2018-04-11T00:13:53.084Z,19.80
2018-04-11T00:16:23.045Z,19.80
2018-04-11T00:18:53.099Z,19.80
2018-04-11T00:21:23.031Z,19.80
2018-04-11T00:27:14.460Z,19.60
2018-04-11T00:29:44.102Z,19.60
2018-04-11T00:32:13.867Z,19.50
2018-04-11T00:34:43.732Z,19.50
2018-04-11T00:40:34.256Z,19.50
2018-04-11T00:43:03.722Z,19.60
2018-04-11T00:45:33.359Z,19.70
2018-04-11T00:51:30.108Z,19.60
2018-04-11T00:54:00.105Z,19.50
2018-04-11T01:02:26.951Z,19.50
2018-04-11T01:04:56.921Z,19.50
2018-04-11T01:07:27.624Z,19.60
2018-04-11T01:09:57.674Z,19.50
2018-04-11T01:12:29.330Z,19.50
2018-04-11T01:15:00.038Z,19.50
2018-04-11T01:17:29.663Z,19.50
2018-04-11T01:20:09.998Z,19.60
2018-04-11T01:22:41.356Z,19.70
2018-04-11T01:25:14.293Z,19.60
2018-04-11T01:31:12.887Z,19.70
2018-04-11T01:33:43.380Z,19.60
2018-04-11T01:36:13.288Z,19.60
2018-04-11T01:38:43.103Z,19.50
2018-04-11T01:41:12.872Z,19.50
2018-04-11T01:43:42.754Z,19.60
2018-04-11T01:46:12.272Z,19.60
2018-04-11T01:48:43.345Z,19.60
2018-04-11T01:51:13.281Z,19.40
2018-04-11T01:57:14.708Z,19.20
2018-04-11T01:59:44.590Z,19.30
2018-04-11T02:02:14.383Z,19.30
2018-04-11T02:04:44.338Z,19.20
2018-04-11T02:07:14.153Z,19.20
2018-04-11T02:09:44.056Z,19.20
2018-04-11T02:12:14.389Z,19.10
2018-04-11T02:14:44.464Z,19.00
2018-04-11T02:17:14.961Z,18.70
2018-04-11T02:19:45.055Z,18.70
2018-04-11T02:25:35.831Z,18.60
2018-04-11T02:28:05.917Z,18.70
2018-04-11T02:30:38.269Z,18.70
2018-04-11T02:33:08.404Z,18.80
2018-04-11T02:35:38.154Z,18.70
2018-04-11T02:38:07.934Z,18.90
2018-04-11T02:40:37.989Z,19.00
2018-04-11T02:43:07.927Z,19.10
2018-04-11T02:45:37.572Z,19.10
2018-04-11T02:51:29.603Z,19.10
2018-04-11T02:53:59.449Z,19.10
2018-04-11T02:56:29.031Z,19.00
2018-04-11T02:59:00.320Z,19.00
2018-04-11T03:01:30.734Z,19.00
2018-04-11T03:04:00.254Z,18.90
2018-04-11T03:06:29.861Z,19.10
2018-04-11T03:08:59.300Z,19.10
2018-04-11T03:11:29.710Z,19.10
2018-04-11T03:14:01.206Z,19.10
2018-04-11T03:19:52.201Z,19.10
2018-04-11T03:22:22.300Z,19.10
2018-04-11T03:24:55.127Z,19.00
2018-04-11T03:27:24.756Z,18.90
2018-04-11T03:33:16.543Z,18.90
2018-04-11T03:35:46.729Z,19.00
2018-04-11T03:38:17.103Z,18.90
2018-04-11T03:40:46.724Z,18.90
2018-04-11T03:43:16.564Z,18.90
2018-04-11T03:45:45.950Z,18.90
2018-04-11T03:48:16.004Z,18.80
2018-04-11T03:50:46.199Z,18.90
2018-04-11T03:53:15.710Z,18.80
2018-04-11T03:55:45.080Z,18.90
2018-04-11T03:58:16.492Z,18.90
2018-04-11T04:00:48.467Z,18.90
2018-04-11T04:03:21.121Z,18.90
2018-04-11T04:05:52.707Z,18.90
2018-04-11T04:08:22.178Z,18.90
2018-04-11T04:10:52.171Z,18.80
2018-04-11T04:13:42.351Z,18.80
2018-04-11T04:16:23.564Z,18.80
2018-04-11T04:19:04.669Z,18.80
2018-04-11T04:21:34.698Z,18.80
2018-04-11T04:24:04.362Z,18.90
2018-04-11T04:26:33.978Z,18.90
2018-04-11T04:29:10.907Z,18.90
2018-04-11T04:31:48.191Z,19.00
2018-04-11T04:34:18.142Z,18.90
2018-04-11T04:36:47.909Z,18.80
2018-04-11T04:39:17.947Z,18.80
2018-04-11T04:41:47.788Z,18.70
2018-04-11T04:44:17.241Z,18.80
2018-04-11T04:46:46.855Z,18.80
2018-04-11T04:49:16.937Z,18.70
2018-04-11T04:51:46.914Z,18.70
2018-04-11T04:54:16.743Z,18.70
2018-04-11T04:56:46.527Z,18.70
2018-04-11T04:59:16.497Z,18.70
2018-04-11T05:01:47.474Z,18.70
2018-04-11T05:04:17.645Z,18.70
2018-04-11T05:06:47.144Z,18.80
2018-04-11T05:09:16.658Z,18.90
2018-04-11T05:11:46.272Z,19.00
2018-04-11T05:14:16.517Z,19.10
2018-04-11T05:16:48.535Z,19.10
2018-04-11T05:19:20.598Z,19.00
2018-04-11T05:21:50.403Z,18.70
2018-04-11T05:27:51.015Z,17.70
2018-04-11T05:30:20.906Z,17.40
2018-04-11T05:32:50.834Z,17.20
2018-04-11T05:35:20.476Z,17.10
2018-04-11T05:37:50.361Z,17.10
2018-04-11T05:40:20.152Z,17.00
2018-04-11T05:42:49.987Z,17.00
2018-04-11T05:45:19.464Z,17.00
2018-04-11T05:47:49.261Z,17.00
2018-04-11T05:50:19.083Z,17.00
2018-04-11T05:52:49.656Z,16.90
2018-04-11T05:55:19.123Z,16.90
2018-04-11T05:57:48.924Z,17.00
2018-04-11T06:00:18.807Z,17.10
2018-04-11T06:06:11.117Z,17.00
2018-04-11T06:08:41.167Z,16.90
2018-04-11T06:14:42.673Z,16.90
2018-04-11T06:17:12.478Z,16.90
2018-04-11T06:19:42.206Z,16.90
2018-04-11T06:22:12.109Z,16.80
2018-04-11T06:24:41.864Z,16.80
2018-04-11T06:27:11.413Z,16.60
2018-04-11T06:29:41.123Z,16.50
2018-04-11T06:32:10.821Z,16.40
2018-04-11T06:34:40.671Z,16.30
2018-04-11T06:37:10.322Z,16.20
2018-04-11T06:39:40.880Z,16.20
2018-04-11T06:42:10.654Z,16.10
2018-04-11T06:44:40.561Z,16.20
2018-04-11T06:47:10.373Z,16.20
2018-04-11T06:49:40.166Z,16.20
2018-04-11T06:52:09.842Z,16.30
2018-04-11T06:54:39.619Z,16.30
2018-04-11T06:57:09.389Z,16.30
2018-04-11T06:59:39.490Z,16.30
2018-04-11T07:02:09.127Z,16.30
2018-04-11T07:04:38.834Z,16.30
2018-04-11T07:07:08.690Z,16.40
2018-04-11T07:09:38.432Z,16.30
2018-04-11T07:12:08.153Z,16.40
2018-04-11T07:14:37.873Z,16.30
2018-04-11T07:17:07.967Z,16.30
2018-04-11T07:19:37.906Z,16.30
2018-04-11T07:22:07.729Z,16.30
2018-04-11T07:24:37.401Z,16.30
2018-04-11T07:27:07.048Z,16.30
2018-04-11T07:29:36.807Z,16.30
2018-04-11T07:32:07.373Z,16.20
2018-04-11T07:34:37.123Z,16.20
2018-04-11T07:37:07.813Z,16.30
2018-04-11T07:39:37.512Z,16.30
2018-04-11T07:42:07.294Z,16.30
2018-04-11T07:44:37.957Z,16.30
2018-04-11T07:47:07.587Z,16.30
2018-04-11T07:49:37.321Z,16.30
2018-04-11T07:52:07.251Z,16.30
2018-04-11T07:54:36.955Z,16.30
2018-04-11T07:57:07.079Z,16.30
2018-04-11T07:59:36.885Z,16.30
2018-04-11T08:02:06.837Z,16.30
2018-04-11T08:04:36.598Z,16.40
2018-04-11T08:07:06.294Z,16.40
2018-04-11T08:09:36.052Z,16.40
2018-04-11T08:12:06.663Z,16.40
2018-04-11T08:14:36.600Z,16.50
2018-04-11T08:17:07.364Z,16.50
2018-04-11T08:19:37.482Z,16.40
2018-04-11T08:22:07.581Z,16.50
2018-04-11T08:24:38.228Z,16.50
2018-04-11T08:27:08.242Z,16.40
2018-04-11T08:29:38.235Z,16.50
2018-04-11T08:32:08.332Z,16.50
2018-04-11T08:34:38.148Z,16.50
2018-04-11T08:37:08.068Z,16.60
2018-04-11T08:39:37.986Z,16.50
2018-04-11T08:42:07.865Z,16.60
2018-04-11T08:44:37.674Z,16.50
2018-04-11T08:47:07.537Z,16.60
2018-04-11T08:49:37.405Z,16.60
2018-04-11T08:52:07.178Z,16.60
2018-04-11T08:54:36.945Z,16.60
2018-04-11T08:57:06.646Z,16.60
2018-04-11T08:59:36.463Z,16.70
2018-04-11T09:02:06.267Z,16.70
2018-04-11T09:04:36.125Z,16.60
2018-04-11T09:07:05.850Z,16.60
2018-04-11T09:09:36.523Z,16.60
2018-04-11T09:12:06.471Z,16.50
2018-04-11T09:14:36.420Z,16.60
2018-04-11T09:17:07.024Z,16.50
2018-04-11T09:19:36.773Z,16.40
2018-04-11T09:22:49.363Z,16.40
2018-04-11T09:25:19.089Z,16.50
2018-04-11T09:27:49.105Z,16.50
2018-04-11T09:33:40.130Z,16.40
2018-04-11T09:36:09.990Z,16.50
2018-04-11T09:38:40.112Z,16.50
2018-04-11T09:41:10.206Z,16.50
2018-04-11T09:43:40.097Z,16.50
2018-04-11T09:46:10.494Z,16.50
2018-04-11T09:48:40.554Z,16.60
2018-04-11T09:51:10.408Z,16.60
2018-04-11T09:53:40.228Z,16.60
2018-04-11T09:56:10.053Z,16.50
2018-04-11T09:58:40.025Z,16.50
2018-04-11T10:01:10.058Z,16.60
2018-04-11T10:03:45.441Z,16.60
2018-04-11T10:06:15.246Z,16.60
2018-04-11T10:08:45.123Z,16.60
2018-04-11T10:11:15.139Z,16.60
2018-04-11T10:13:45.087Z,16.60
2018-04-11T10:16:14.802Z,16.60
2018-04-11T10:18:45.055Z,16.50
2018-04-11T10:21:15.925Z,16.50
2018-04-11T10:23:47.143Z,16.50
2018-04-11T10:26:17.029Z,16.40
2018-04-11T10:28:47.045Z,16.40
2018-04-11T10:31:16.772Z,16.40
2018-04-11T10:33:46.830Z,16.40
2018-04-11T10:36:16.608Z,16.30
2018-04-11T10:38:46.751Z,16.30
2018-04-11T10:41:16.556Z,16.30
2018-04-11T10:43:46.435Z,16.30
2018-04-11T10:46:16.522Z,16.30
2018-04-11T10:48:47.261Z,16.20
2018-04-11T10:51:17.245Z,16.20
2018-04-11T10:53:47.036Z,16.20
2018-04-11T10:56:17.079Z,16.20
2018-04-11T10:58:46.895Z,16.20
2018-04-11T11:01:16.792Z,16.20
2018-04-11T11:03:46.779Z,16.10
2018-04-11T11:06:16.898Z,16.00
2018-04-11T11:08:46.854Z,16.00
2018-04-11T11:11:16.719Z,16.00
2018-04-11T11:13:46.698Z,15.90
2018-04-11T11:16:16.495Z,15.80
2018-04-11T11:18:46.466Z,15.80
2018-04-11T11:21:16.589Z,15.80
2018-04-11T11:23:48.321Z,15.70
2018-04-11T11:26:19.500Z,15.80
2018-04-11T11:28:49.442Z,15.80
2018-04-11T11:31:27.667Z,15.80
2018-04-11T11:33:59.443Z,15.70
2018-04-11T11:36:30.122Z,15.70
2018-04-11T11:39:02.456Z,15.70
2018-04-11T11:41:33.538Z,15.70
2018-04-11T11:44:04.009Z,15.70
2018-04-11T11:46:34.441Z,15.70
2018-04-11T11:49:04.889Z,15.70
2018-04-11T11:51:37.745Z,15.70
2018-04-11T11:54:08.100Z,15.70
2018-04-11T11:56:38.449Z,15.70
2018-04-11T11:59:08.361Z,15.70
2018-04-11T12:01:38.600Z,15.70
2018-04-11T12:04:09.748Z,15.70
2018-04-11T12:06:40.778Z,15.80
2018-04-11T12:09:11.501Z,15.80
2018-04-11T12:11:41.475Z,15.80
2018-04-11T12:14:11.337Z,15.90
2018-04-11T12:16:42.201Z,16.00
2018-04-11T12:19:12.184Z,16.00
2018-04-11T12:21:44.304Z,16.10
2018-04-11T12:24:15.868Z,16.10
2018-04-11T12:26:45.864Z,16.00
2018-04-11T12:29:15.712Z,16.10
2018-04-11T12:31:45.587Z,16.10
2018-04-11T12:34:15.447Z,16.10
2018-04-11T12:36:47.633Z,16.20
2018-04-11T12:39:17.617Z,16.20
2018-04-11T12:45:08.237Z,16.40
2018-04-11T12:47:37.969Z,16.40
2018-04-11T12:50:07.492Z,16.40
2018-04-11T12:52:37.378Z,16.50
2018-04-11T12:55:06.939Z,16.60
2018-04-11T12:57:37.592Z,16.80
2018-04-11T13:00:07.188Z,16.80
2018-04-11T13:02:36.947Z,16.90
2018-04-11T13:05:06.698Z,16.90
2018-04-11T13:07:37.313Z,17.00
2018-04-11T13:10:06.995Z,16.90
2018-04-11T13:12:36.628Z,17.00
2018-04-11T13:15:06.703Z,17.10
2018-04-11T13:21:07.320Z,17.40
2018-04-11T13:23:37.142Z,17.50
2018-04-11T13:26:07.058Z,17.60
2018-04-11T13:31:58.656Z,17.70
2018-04-11T13:34:28.572Z,17.80
2018-04-11T13:36:58.429Z,17.80
2018-04-11T13:39:28.244Z,17.80
2018-04-11T13:41:58.177Z,17.90
2018-04-11T13:44:28.292Z,17.90
2018-04-11T13:46:58.386Z,18.00
2018-04-11T13:49:28.236Z,17.90
2018-04-11T13:51:58.191Z,17.90
2018-04-11T13:54:28.142Z,17.90
2018-04-11T13:56:58.142Z,18.00
2018-04-11T13:59:27.732Z,17.90
2018-04-11T14:01:58.440Z,17.90
2018-04-11T14:04:28.693Z,17.90
2018-04-11T14:06:59.364Z,18.10
2018-04-11T14:09:29.445Z,18.00
2018-04-11T14:12:00.593Z,18.30
2018-04-11T14:14:31.280Z,18.50
2018-04-11T14:17:01.305Z,18.40
2018-04-11T14:19:31.363Z,18.70
2018-04-11T14:22:01.168Z,19.00
2018-04-11T14:24:32.067Z,20.00
2018-04-11T14:27:01.484Z,19.90
2018-04-11T14:29:31.088Z,20.80
2018-04-11T14:32:00.563Z,21.60
2018-04-11T14:34:29.863Z,22.00
2018-04-11T14:36:59.853Z,21.70
2018-04-11T14:39:29.949Z,21.50
2018-04-11T14:41:59.726Z,21.30
2018-04-11T14:44:30.274Z,21.30
2018-04-11T14:46:59.900Z,21.30
2018-04-11T14:49:29.283Z,21.20
2018-04-11T14:51:58.774Z,21.20
2018-04-11T14:54:28.705Z,21.20
2018-04-11T14:57:02.228Z,21.10
2018-04-11T14:59:33.303Z,21.10
2018-04-11T15:02:02.674Z,21.00
2018-04-11T15:04:33.453Z,21.00
2018-04-11T15:07:03.280Z,21.20
2018-04-11T15:09:32.594Z,21.40
2018-04-11T15:12:03.093Z,21.60
2018-04-11T15:14:33.074Z,21.60
2018-04-11T15:17:02.813Z,21.70
2018-04-11T15:19:32.936Z,21.80
2018-04-11T15:22:02.407Z,21.80
2018-04-11T15:24:31.794Z,22.10
2018-04-11T15:27:01.671Z,22.30
2018-04-11T15:29:40.907Z,22.60
2018-04-11T15:32:13.296Z,22.70
2018-04-11T15:34:58.494Z,23.10
2018-04-11T15:37:35.794Z,23.40
2018-04-11T15:40:08.785Z,24.30
2018-04-11T15:42:44.955Z,24.20
2018-04-11T15:45:17.919Z,24.10
2018-04-11T15:47:49.118Z,24.00
2018-04-11T15:50:20.021Z,24.30
2018-04-11T15:52:50.050Z,24.90
2018-04-11T15:55:22.884Z,25.00
2018-04-11T15:57:53.244Z,25.00
2018-04-11T16:00:23.076Z,25.90
2018-04-11T16:03:32.772Z,26.10
2018-04-11T16:06:02.522Z,25.80
2018-04-11T16:08:34.819Z,26.10
2018-04-11T16:11:04.584Z,25.80
2018-04-11T16:13:34.506Z,26.10
2018-04-11T16:16:04.628Z,25.80
2018-04-11T16:18:37.274Z,25.10
2018-04-11T16:21:07.189Z,24.10
2018-04-11T16:23:36.867Z,24.10
2018-04-11T16:26:06.617Z,23.70
2018-04-11T16:28:36.732Z,23.30
2018-04-11T16:31:11.793Z,22.90
2018-04-11T16:33:41.916Z,23.00
2018-04-11T16:36:11.602Z,22.90
2018-04-11T16:38:42.332Z,23.10
2018-04-11T16:41:13.269Z,23.50
2018-04-11T16:43:43.299Z,23.50
2018-04-11T16:46:13.839Z,25.20
2018-04-11T16:48:43.611Z,25.10
2018-04-11T16:51:13.311Z,25.50
2018-04-11T16:53:43.260Z,25.60
2018-04-11T16:56:12.977Z,25.60
2018-04-11T16:58:43.826Z,26.00
2018-04-11T17:01:14.287Z,25.70
2018-04-11T17:03:44.180Z,25.70
2018-04-11T17:06:14.655Z,24.90
2018-04-11T17:08:44.758Z,24.90
2018-04-11T17:11:14.594Z,24.90
2018-04-11T17:13:44.801Z,25.30
2018-04-11T17:16:14.626Z,25.70
2018-04-11T17:18:44.820Z,26.20
2018-04-11T17:21:25.719Z,26.10
2018-04-11T17:24:06.998Z,25.50
2018-04-11T17:30:22.200Z,24.70
2018-04-11T17:32:52.258Z,24.40
2018-04-11T17:35:21.887Z,24.10
2018-04-11T17:37:51.503Z,24.00
2018-04-11T17:40:21.119Z,24.00
2018-04-11T17:42:50.656Z,23.90
2018-04-11T17:45:20.264Z,23.90
2018-04-11T17:47:50.021Z,23.80
2018-04-11T17:50:19.662Z,23.80
2018-04-11T17:52:49.962Z,24.00
2018-04-11T17:55:20.134Z,24.00
2018-04-11T17:57:49.616Z,24.10
2018-04-11T18:00:19.159Z,24.20
2018-04-11T18:02:48.631Z,24.60
2018-04-11T18:05:19.722Z,24.80
2018-04-11T18:07:49.243Z,24.80
2018-04-11T18:10:18.774Z,25.10
2018-04-11T18:12:49.059Z,25.70
2018-04-11T18:15:18.594Z,25.60
2018-04-11T18:17:48.121Z,25.70
2018-04-11T18:20:17.725Z,25.70
2018-04-11T18:22:47.945Z,25.70
2018-04-11T18:25:17.657Z,26.40
2018-04-11T18:27:47.225Z,26.90
2018-04-11T18:30:17.678Z,27.30
2018-04-11T18:32:47.266Z,27.20
2018-04-11T18:35:20.885Z,27.50
2018-04-11T18:37:50.543Z,27.40
2018-04-11T18:40:20.200Z,27.30
2018-04-11T18:42:49.766Z,27.30
2018-04-11T18:45:19.354Z,27.20
2018-04-11T18:47:49.785Z,27.30
2018-04-11T18:50:19.381Z,27.30
2018-04-11T18:52:49.114Z,27.30
2018-04-11T18:55:18.874Z,27.10
2018-04-11T18:57:48.475Z,27.60
2018-04-11T19:00:18.230Z,28.00
2018-04-11T19:02:48.127Z,28.00
2018-04-11T19:05:17.725Z,27.20
2018-04-11T19:07:47.397Z,26.40
2018-04-11T19:10:17.009Z,25.90
2018-04-11T19:12:46.645Z,26.00
2018-04-11T19:15:16.297Z,26.60
2018-04-11T19:17:45.892Z,27.40
2018-04-11T19:20:16.141Z,27.70
2018-04-11T19:22:46.501Z,28.20
2018-04-11T19:25:17.573Z,28.20
2018-04-11T19:27:48.039Z,28.30
2018-04-11T19:33:44.910Z,28.90
2018-04-11T19:36:14.282Z,29.10
2018-04-11T19:38:43.737Z,28.60
2018-04-11T19:41:13.513Z,27.80
2018-04-11T19:43:43.510Z,27.60
2018-04-11T19:46:14.236Z,27.80
2018-04-11T19:48:55.899Z,27.70
2018-04-11T19:51:25.828Z,27.60
2018-04-11T19:53:55.096Z,27.60
2018-04-11T19:56:24.352Z,27.50
2018-04-11T19:58:54.734Z,26.40
2018-04-11T20:01:24.016Z,26.30
2018-04-11T20:03:53.396Z,26.40
2018-04-11T20:06:23.250Z,26.30
2018-04-11T20:08:52.708Z,26.20
2018-04-11T20:11:22.093Z,26.10
2018-04-11T20:17:13.524Z,25.70
2018-04-11T20:19:43.920Z,25.30
2018-04-11T20:22:14.717Z,25.20
2018-04-11T20:24:45.101Z,24.80
2018-04-11T20:27:14.597Z,24.80
2018-04-11T20:29:45.425Z,24.80
2018-04-11T20:32:16.319Z,24.60
2018-04-11T20:34:48.289Z,24.50
2018-04-11T20:37:17.725Z,24.40
2018-04-11T20:39:47.673Z,24.40
2018-04-11T20:42:17.428Z,24.40
2018-04-11T20:44:47.014Z,24.30
2018-04-11T20:47:16.783Z,24.10
2018-04-11T20:49:50.616Z,24.10
2018-04-11T20:52:20.758Z,24.20
2018-04-11T20:54:50.289Z,24.20
2018-04-11T20:57:20.499Z,23.90
2018-04-11T20:59:50.014Z,23.90
2018-04-11T21:02:19.429Z,23.90
2018-04-11T21:04:48.994Z,24.00
2018-04-11T21:07:18.596Z,24.10
2018-04-11T21:09:48.261Z,24.20
2018-04-11T21:12:18.520Z,24.50
2018-04-11T21:14:47.954Z,24.40
2018-04-11T21:19:50.708Z,24.40
2018-04-11T21:22:20.267Z,24.30
2018-04-11T21:24:49.801Z,24.30
2018-04-11T21:27:19.183Z,24.40
2018-04-11T21:29:48.694Z,24.20
2018-04-11T21:32:18.977Z,23.60
2018-04-11T21:34:48.397Z,23.60
2018-04-11T21:37:17.836Z,23.40
2018-04-11T21:39:48.090Z,23.10
2018-04-11T21:42:17.516Z,23.10
2018-04-11T21:44:46.957Z,22.80
2018-04-11T21:47:16.388Z,22.60
2018-04-11T21:49:51.125Z,22.50
2018-04-11T21:52:20.594Z,22.60
2018-04-11T21:54:50.771Z,22.70
2018-04-11T21:57:20.294Z,22.70
2018-04-11T21:59:49.604Z,22.70
2018-04-11T22:02:18.951Z,22.50
2018-04-11T22:04:48.400Z,22.40
2018-04-11T22:07:17.720Z,22.60
2018-04-11T22:09:47.034Z,22.70
2018-04-11T22:12:16.891Z,22.70
2018-04-11T22:14:47.153Z,22.70
2018-04-11T22:17:16.643Z,22.80
2018-04-11T22:19:46.016Z,22.70
2018-04-11T22:25:36.737Z,23.20
2018-04-11T22:28:06.067Z,23.90
2018-04-11T22:30:35.405Z,23.90
2018-04-11T22:33:05.247Z,23.60
2018-04-11T22:35:35.085Z,23.20
2018-04-11T22:41:35.340Z,22.50
2018-04-11T22:44:04.668Z,21.90
2018-04-11T22:46:34.514Z,21.30
2018-04-11T22:49:04.458Z,21.10
2018-04-11T22:51:34.332Z,20.80
2018-04-11T22:54:04.346Z,20.60
2018-04-11T22:56:34.668Z,20.50
2018-04-11T22:59:04.661Z,20.50
2018-04-11T23:01:34.376Z,20.30
2018-04-11T23:04:04.136Z,20.20
2018-04-11T23:06:34.154Z,20.20
2018-04-11T23:09:04.097Z,20.20
2018-04-11T23:11:33.627Z,20.20
2018-04-11T23:14:03.692Z,20.00
2018-04-11T23:16:33.586Z,19.90
2018-04-11T23:19:03.412Z,19.70
2018-04-11T23:24:55.831Z,19.50
2018-04-11T23:27:25.290Z,19.40
2018-04-11T23:29:57.598Z,19.50
2018-04-11T23:32:30.738Z,19.30
2018-04-11T23:35:00.453Z,19.20
2018-04-11T23:37:29.916Z,19.20
2018-04-11T23:39:59.661Z,19.10
2018-04-11T23:42:30.428Z,19.00
2018-04-11T23:45:02.791Z,18.90
2018-04-11T23:47:35.826Z,18.80
2018-04-11T23:50:10.946Z,18.70
2018-04-11T23:52:40.754Z,18.60
2018-04-11T23:55:10.298Z,18.50
2018-04-11T23:57:40.043Z,18.40
